Date,TemperatureHighF,TemperatureAvgF,TemperatureLowF,DewpointHighF,DewpointAvgF,DewpointLowF,HumidityHigh,HumidityAvg,HumidityLow,PressureMaxIn,PressureMinIn,WindSpeedMaxMPH,WindSpeedAvgMPH,GustSpeedMaxMPH,PrecipitationSumIn
2013-1-1,48.7,44.0,37.2,47.1,41.2,33.0,98,90,64,29.18,29.06,11,1,11,0.94
2013-1-2,37.0,34.1,32.9,33.5,26.7,22.8,88,74,66,29.29,29.15,11,2,11,0.67
2013-1-3,46.4,34.5,28.0,24.3,20.5,15.3,77,59,32,29.44,29.26,9,0,9,0.67
2013-1-4,49.1,33.1,23.5,25.7,18.1,14.3,77,57,30,29.53,29.44,8,0,8,0.00
2013-1-5,48.0,38.0,25.3,29.0,20.8,16.4,76,52,32,29.44,29.29,8,0,8,0.00
2013-1-6,51.6,42.9,33.6,33.2,27.1,18.6,74,55,32,29.41,29.23,12,2,12,0.00
2013-1-7,51.1,36.1,25.3,24.3,19.8,14.9,72,53,32,29.47,29.32,6,0,6,0.00
2013-1-8,60.4,47.0,28.4,37.0,29.0,19.7,73,51,32,29.38,29.29,11,1,11,0.00
2013-1-9,55.8,53.8,50.9,54.9,50.9,36.7,98,91,54,29.44,29.32,8,0,8,0.98
2013-1-10,65.5,60.1,54.5,61.3,57.2,54.0,98,91,72,29.44,29.09,20,2,20,0.04
2013-1-11,70.0,65.5,61.9,62.8,59.1,52.4,98,81,54,29.15,29.06,17,2,17,0.28
2013-1-12,68.4,66.9,65.5,66.7,62.0,53.7,96,85,62,29.12,28.94,22,2,22,0.87
2013-1-13,69.6,58.9,39.6,63.6,51.3,31.5,94,76,59,29.26,28.91,18,4,18,0.75
2013-1-14,40.1,34.9,32.7,32.2,27.4,23.0,82,74,66,29.38,29.23,10,2,11,0.04
2013-1-15,36.9,35.7,34.0,33.7,32.1,29.2,90,87,82,29.26,29.06,10,1,10,0.89
2013-1-16,38.3,36.6,35.2,34.8,33.3,31.7,90,88,85,29.18,29.03,8,0,8,0.43
2013-1-17,45.5,38.6,35.1,33.8,27.6,21.5,88,66,47,29.47,29.09,23,3,23,0.04
2013-1-18,52.3,38.1,27.7,26.3,22.2,16.6,78,56,27,29.62,29.44,6,0,6,0.00
2013-1-19,57.2,45.7,34.0,25.1,22.0,19.6,61,40,27,29.44,29.23,14,1,14,0.00
2013-1-20,59.0,46.1,33.8,28.1,23.8,19.7,62,43,26,29.32,29.21,9,0,9,0.00
2013-1-21,46.2,35.9,29.5,23.0,12.6,5.5,67,39,28,29.35,29.21,11,1,11,0.00
2013-1-22,37.8,31.6,24.3,9.4,6.7,0.6,44,35,29,29.47,29.32,9,1,9,0.00
2013-1-23,53.6,42.6,32.4,28.5,17.2,7.8,53,36,29,29.41,29.21,11,1,11,0.00
2013-1-24,44.8,37.6,33.1,28.6,13.6,6.3,66,38,29,29.50,29.26,17,4,17,0.00
2013-1-25,44.1,39.8,35.8,41.5,28.8,7.2,92,68,30,31.01,29.15,9,1,9,0.35
2013-1-26,51.6,39.7,33.1,32.3,27.4,24.1,83,64,36,31.01,31.01,8,1,8,0.00
2013-1-27,51.6,43.4,31.3,36.7,29.5,23.3,78,59,43,31.01,31.01,13,2,13,0.00
2013-1-28,61.5,58.4,52.2,47.8,45.5,36.5,73,62,55,31.01,24.07,14,3,14,0.00
2013-1-29,68.4,62.2,55.9,59.7,56.0,47.4,93,81,68,31.01,17.72,19,5,19,0.00
2013-1-30,70.9,54.1,36.7,57.6,42.7,14.5,90,67,40,29.44,28.61,19,4,29,1.46
2013-1-31,48.0,41.7,33.8,30.9,17.8,13.1,77,39,29,31.01,29.23,10,2,10,0.00
2013-2-1,35.8,29.1,22.5,28.1,9.4,4.5,81,44,31,31.01,29.71,12,1,12,0.00
2013-2-2,46.2,34.6,24.4,26.8,19.1,10.4,68,53,41,31.01,29.71,10,1,10,0.08
2013-2-3,39.7,36.7,34.5,26.8,25.5,24.0,70,64,53,31.01,31.01,5,1,8,0.00
2013-2-4,55.4,49.8,40.3,28.8,22.1,19.1,50,34,25,31.01,30.09,11,2,11,0.00
2013-2-5,64.0,49.9,39.2,39.4,32.3,27.7,76,53,27,31.01,30.53,7,0,7,0.00
2013-2-6,63.3,47.6,34.2,32.8,28.6,25.7,73,51,26,31.01,31.01,7,0,7,0.00
2013-2-7,62.4,53.0,43.9,45.2,36.4,27.7,79,54,38,31.01,31.01,11,2,11,0.00
2013-2-8,52.2,45.6,37.6,47.1,33.5,21.7,91,64,46,31.01,31.01,14,4,15,0.08
2013-2-9,58.8,45.8,35.6,32.9,24.2,21.1,63,44,26,31.01,31.01,15,3,15,0.00
2013-2-10,58.8,54.2,49.8,57.3,38.3,22.8,97,60,30,31.01,31.01,20,4,20,0.59
2013-2-11,59.0,52.0,42.4,58.4,32.9,20.0,98,51,28,31.01,31.01,6,0,10,0.00
2013-2-12,55.8,47.0,39.9,37.0,30.2,22.9,76,54,30,31.01,31.01,10,2,10,0.00
2013-2-13,46.4,42.9,40.3,37.7,32.9,28.6,76,68,57,31.01,31.01,4,0,4,0.08
2013-2-14,61.7,46.8,33.3,32.6,27.3,22.6,79,51,25,31.01,31.01,13,1,13,0.04
2013-2-15,53.8,45.7,37.0,33.2,24.9,15.0,69,45,33,31.01,31.01,13,1,13,0.04
2013-2-16,40.1,33.9,24.3,15.0,10.1,3.4,52,37,29,31.01,31.01,11,1,11,0.04
2013-2-17,48.9,36.2,20.8,16.0,11.1,5.7,57,36,26,31.01,31.01,10,0,10,0.04
2013-2-18,63.1,50.7,40.6,41.3,21.8,11.2,80,33,25,31.01,31.01,24,5,24,0.20
2013-2-19,51.4,44.9,30.2,45.0,23.7,9.8,88,47,22,31.01,31.01,13,2,13,0.08
2013-2-20,40.3,33.8,28.0,16.6,11.0,7.9,59,39,31,31.01,31.01,9,2,9,0.08
2013-2-21,53.2,41.6,30.4,44.3,22.7,10.0,87,50,26,31.01,31.01,14,2,14,0.51
2013-2-22,59.5,53.2,49.6,48.2,42.6,37.0,93,69,44,31.01,31.01,14,2,14,0.00
2013-2-23,58.8,48.7,36.5,44.7,29.9,21.8,83,50,32,31.01,31.01,7,1,10,0.00
2013-2-24,59.7,44.5,32.9,25.5,21.6,16.6,66,43,24,31.01,31.01,10,2,10,0.00
2013-2-25,65.7,49.7,33.6,41.4,27.1,19.2,64,43,23,31.01,31.01,23,2,23,0.00
2013-2-26,53.8,47.1,41.0,46.3,36.3,26.4,83,67,44,31.01,31.01,19,4,19,0.12
2013-2-27,46.6,41.4,38.5,30.1,24.6,21.9,71,51,41,31.01,31.01,12,2,12,0.12
2013-2-28,39.9,38.0,36.0,25.0,19.3,16.2,58,47,40,31.01,31.01,9,1,9,0.12
2013-3-1,39.4,36.3,34.0,30.7,25.8,20.5,87,66,49,31.01,31.01,7,1,7,0.12
2013-3-2,35.6,33.2,30.9,30.7,25.8,19.1,87,74,61,31.01,31.01,8,0,8,0.12
2013-3-3,46.2,34.9,27.1,20.4,14.0,9.4,67,44,25,31.01,31.01,9,1,9,0.12
2013-3-4,51.6,37.1,31.8,23.1,18.9,13.6,66,49,27,31.01,31.01,11,1,11,0.12
2013-3-5,54.1,39.8,34.0,48.5,24.9,10.5,81,56,35,31.01,31.01,17,4,17,1.52
2013-3-6,45.3,37.2,33.1,21.1,16.9,11.1,54,43,37,31.01,31.01,15,3,15,0.00
2013-3-7,49.1,37.4,31.3,24.0,20.4,16.9,60,51,36,31.01,31.01,12,3,12,0.00
2013-3-8,61.9,45.4,28.6,24.6,21.2,16.6,67,42,21,31.01,31.01,9,2,9,0.00
2013-3-9,64.9,53.2,36.7,30.4,25.1,20.4,68,37,21,31.01,31.01,13,2,13,0.00
2013-3-10,71.8,63.7,55.9,37.1,27.7,22.5,33,26,22,31.01,31.01,20,6,20,0.00
2013-3-11,48.7,44.0,40.5,36.7,26.6,21.5,67,50,45,31.01,31.01,8,1,8,0.00
2013-3-12,57.7,45.9,36.9,25.1,21.9,17.3,57,40,25,31.01,21.29,10,1,10,0.00
2013-3-13,49.3,41.4,35.4,26.0,16.9,10.2,65,38,27,31.01,20.58,10,2,10,0.00
2013-3-14,55.9,46.0,30.0,22.5,16.5,11.4,52,31,22,31.01,23.95,8,1,8,0.00
2013-3-15,75.6,59.1,41.4,34.7,26.4,14.4,39,29,22,31.01,22.24,12,2,12,0.00
2013-3-16,76.8,67.2,58.1,42.1,36.8,32.8,45,33,23,31.01,21.05,13,2,13,0.00
2013-3-17,73.0,62.6,50.9,44.1,39.9,32.4,70,45,24,31.01,17.72,13,2,13,0.00
2013-3-18,64.0,60.0,49.1,59.7,51.2,38.6,94,74,45,31.01,17.72,15,3,15,1.34
2013-3-19,62.1,49.7,36.1,39.2,26.1,13.3,82,46,19,31.01,17.72,11,1,13,0.35
2013-3-20,56.8,45.0,34.9,26.4,19.8,11.3,64,38,21,31.01,17.72,11,2,11,0.35
2013-3-21,50.4,37.7,25.9,16.8,11.6,5.4,51,34,24,31.01,17.72,8,1,8,0.35
2013-3-22,51.4,44.5,37.4,36.5,21.2,13.5,69,40,28,31.01,17.72,8,0,8,0.00
2013-3-23,61.0,50.2,44.1,48.3,41.5,36.3,89,73,45,31.01,17.72,10,1,10,0.31
2013-3-24,51.4,50.6,50.2,50.0,48.2,47.2,98,91,87,17.72,17.72,4,0,5,0.31
2013-3-25,37.0,35.4,33.4,22.9,16.9,13.8,64,47,40,17.72,17.72,11,3,11,0.31
2013-3-26,40.6,36.2,32.4,26.6,21.9,16.4,78,57,39,17.72,17.72,8,1,8,0.31
2013-3-27,57.2,41.9,27.0,24.7,20.4,16.4,72,45,25,17.72,17.72,8,1,8,0.31
2013-3-28,64.4,48.0,33.6,30.8,25.0,20.9,72,44,24,17.72,17.72,9,1,9,0.31
2013-3-29,61.9,50.2,40.5,43.3,33.8,27.4,75,55,27,17.72,17.72,7,1,7,0.31
2013-3-30,64.6,54.8,46.4,53.7,44.2,34.1,94,70,33,17.72,17.72,7,0,7,0.43
2013-3-31,58.1,56.0,55.2,55.1,53.0,51.2,97,90,79,17.72,17.72,6,0,6,0.00
2013-4-1,68.0,59.8,49.1,48.8,33.6,24.0,85,40,23,17.72,17.72,11,2,11,0.00
2013-4-2,53.1,47.3,41.7,24.2,20.0,17.4,41,34,27,17.72,17.72,10,2,10,0.00
2013-4-3,57.2,49.8,41.9,23.3,18.7,13.5,42,29,24,17.72,17.72,14,4,14,0.00
2013-4-4,50.2,46.9,42.6,45.0,37.2,17.4,91,72,27,17.72,17.72,6,0,6,0.87
2013-4-5,70.0,55.5,45.3,46.5,36.3,25.3,95,57,22,17.72,17.72,11,2,11,0.79
2013-4-6,73.4,58.5,39.9,41.8,31.4,25.9,80,42,21,17.72,17.72,13,1,13,0.79
2013-4-7,73.8,63.8,53.6,42.5,35.7,29.1,66,36,25,17.72,17.72,17,2,17,0.79
2013-4-8,78.8,66.9,53.1,47.6,43.5,39.6,69,45,27,17.72,17.72,15,2,15,0.79
2013-4-9,80.8,71.0,63.0,51.8,48.0,43.1,59,45,30,17.72,17.72,13,2,13,0.79
2013-4-10,86.2,78.4,70.0,49.3,43.8,39.2,47,30,22,17.72,17.72,17,3,17,0.00
2013-4-11,75.4,68.0,53.2,59.8,52.0,42.7,94,60,32,17.72,17.72,17,4,17,2.05
2013-4-12,67.3,55.5,45.9,49.9,34.0,25.1,89,49,24,17.72,17.72,10,1,10,0.00
2013-4-13,71.8,57.1,44.2,41.2,33.6,27.6,75,45,22,17.72,17.72,9,1,9,0.00
2013-4-14,69.1,58.3,48.4,45.2,39.7,29.0,75,53,23,29.00,17.72,17,1,17,0.00
2013-4-15,79.7,68.4,57.0,51.9,47.7,43.5,76,50,30,29.12,28.97,10,2,13,0.00
2013-4-16,80.6,72.9,66.0,59.7,55.4,51.4,67,55,41,29.23,29.12,15,2,15,0.00
2013-4-17,75.6,71.1,69.1,61.0,59.5,58.8,74,67,57,29.23,29.18,6,1,8,0.00
2013-4-21,68.9,62.0,49.1,38.6,31.8,26.9,67,35,23,29.35,29.29,6,0,8,0.00
2013-4-22,74.1,60.5,46.8,43.0,35.1,30.0,73,42,22,29.35,29.18,14,1,14,0.00
2013-4-23,73.2,64.3,51.1,44.3,39.3,31.1,73,42,29,29.23,29.09,15,3,15,0.00
2013-4-24,66.9,57.1,48.7,57.2,42.5,31.8,91,59,42,29.35,29.00,14,3,14,0.55
2013-4-25,65.5,54.2,42.6,36.8,29.7,25.2,68,42,23,29.44,29.32,9,1,9,0.00
2013-4-26,68.9,55.2,43.3,49.8,37.6,29.1,88,56,26,29.47,29.35,10,2,10,0.83
2013-4-27,64.0,57.3,52.7,61.4,55.1,48.6,97,93,86,29.38,29.03,12,1,12,1.50
2013-4-28,67.8,63.5,58.8,63.7,56.4,45.8,98,79,47,29.06,29.00,10,0,10,0.20
2013-4-29,72.1,63.3,55.0,57.1,49.6,39.9,92,65,33,29.12,29.00,6,0,6,0.00
2013-4-30,79.2,64.8,49.6,58.4,46.4,39.1,88,57,25,29.12,29.03,6,0,6,0.00
2013-5-1,78.8,69.8,58.6,55.0,48.9,42.4,79,50,29,29.21,29.09,12,2,12,0.00
2013-5-2,74.5,68.3,61.0,50.4,47.3,43.0,64,48,37,29.23,29.15,13,3,13,0.00
2013-5-3,74.7,67.0,51.4,55.8,45.5,40.2,82,47,32,29.15,28.94,17,2,17,0.24
2013-5-4,51.6,48.0,44.1,43.4,40.5,37.0,86,76,60,29.06,28.97,3,0,4,1.18
2013-5-5,63.1,53.6,46.9,50.7,42.0,34.6,91,67,40,29.00,28.88,8,0,8,0.16
2013-5-6,60.4,54.4,50.7,53.1,48.9,40.2,98,83,50,29.00,28.85,6,0,6,0.39
2013-5-7,70.2,58.9,46.4,53.3,45.5,40.0,89,65,34,29.09,29.00,5,0,6,0.00
2013-5-8,76.5,65.2,54.3,70.5,52.3,43.3,98,67,32,29.15,29.06,6,0,6,0.00
2013-5-9,80.4,69.1,56.7,58.2,50.2,44.2,91,56,30,29.21,29.06,11,1,11,0.00
2013-5-10,72.0,66.9,63.1,62.7,56.5,51.5,91,70,51,29.12,29.00,11,2,15,0.31
2013-5-11,65.1,63.8,60.6,63.5,60.3,54.2,95,88,70,29.09,29.00,7,0,7,0.04
2013-5-15,83.7,77.8,66.6,49.6,41.2,36.0,52,29,20,29.21,29.09,8,1,8,0.04
2013-5-16,66.9,66.5,66.0,48.6,47.7,46.7,52,51,49,29.12,29.06,4,0,4,0.00
2013-5-19,85.3,77.8,70.5,60.5,56.4,53.1,65,48,39,29.09,29.03,12,2,12,0.00
2013-5-20,81.7,74.3,66.7,62.7,58.6,55.2,73,59,41,29.15,29.03,10,1,10,0.00
2013-5-21,83.3,75.0,69.8,65.7,60.4,48.7,81,61,36,29.09,28.94,8,0,8,0.00
2013-5-22,79.7,72.1,65.5,61.0,54.8,49.3,85,56,35,29.03,28.91,12,1,12,0.00
2013-5-23,79.9,71.2,64.2,60.2,49.9,40.9,80,51,26,29.18,29.00,10,1,10,0.00
2013-5-24,72.9,64.7,54.7,52.0,39.5,31.6,72,42,23,29.38,29.18,11,2,11,0.00
2013-5-25,78.1,63.9,48.0,48.3,39.7,32.2,80,47,20,29.41,29.26,6,0,6,0.00
2013-5-26,81.9,67.3,51.6,52.9,42.8,35.9,76,47,20,29.32,29.21,5,0,7,0.00
2013-5-27,84.2,73.9,59.5,54.9,47.9,40.9,78,44,23,29.26,29.15,13,1,14,0.00
2013-5-28,85.5,76.1,66.0,54.3,48.4,41.3,65,40,23,29.21,29.12,14,2,14,0.00
2013-5-29,86.4,78.4,70.9,54.3,50.0,45.2,49,38,29,29.23,29.12,10,2,10,0.00
2013-5-30,83.1,78.3,72.5,65.1,54.1,49.0,59,43,34,29.23,29.12,13,2,13,0.00
2013-5-31,83.3,78.2,73.8,59.5,56.2,52.8,57,47,40,29.18,29.06,13,3,13,0.00
2013-6-1,84.0,77.0,73.6,68.2,58.4,54.8,69,53,40,29.12,29.03,14,3,14,0.00
2013-6-2,78.1,74.3,69.6,66.2,61.5,54.9,83,65,45,29.03,28.97,4,0,4,0.00
2013-6-3,80.4,71.6,63.9,59.5,52.2,44.0,82,54,30,29.12,29.03,11,1,11,0.00
2013-6-4,82.0,70.8,58.3,57.9,50.6,41.0,83,53,24,29.15,29.06,6,0,6,0.00
2013-6-5,67.8,65.3,63.9,66.0,58.6,55.0,94,79,71,29.09,29.06,4,0,4,0.16
2013-6-7,69.8,68.3,66.6,65.5,64.3,62.9,91,87,82,28.97,28.91,0,0,3,17.56
2013-6-8,81.3,71.7,62.6,67.4,53.8,38.3,98,61,22,29.12,28.97,6,0,9,17.60
2013-6-9,77.4,71.1,66.0,70.6,64.7,57.7,91,80,67,29.15,28.97,5,0,10,18.03
2013-6-10,84.4,75.3,68.4,68.8,60.7,49.5,93,65,32,29.06,28.97,10,1,12,16.50
2013-6-11,90.3,79.6,69.6,71.4,64.0,54.8,93,63,31,29.12,29.06,6,0,6,16.50
2013-6-12,91.8,83.4,76.5,68.8,61.7,52.7,75,51,28,29.18,29.03,10,0,10,0.00
2013-6-13,90.0,80.4,72.5,65.6,60.8,50.3,68,52,30,29.03,28.91,12,1,12,0.00
2013-6-14,83.5,74.0,64.8,56.5,46.4,37.1,71,41,21,29.12,29.03,13,1,13,0.00
2013-6-15,86.2,74.2,61.3,61.5,52.2,41.1,83,51,21,29.18,29.09,10,0,10,0.00
2013-6-16,87.6,77.5,69.4,68.8,58.0,49.6,84,54,30,29.18,29.06,9,0,9,0.00
2013-6-17,84.4,73.3,70.3,69.3,66.7,61.0,90,81,47,29.12,29.00,9,0,9,0.79
2013-6-18,78.6,72.7,68.9,71.2,63.2,50.6,97,75,38,29.06,28.94,10,1,10,0.75
2013-6-19,86.2,74.2,65.5,68.6,62.3,51.6,91,69,32,29.15,29.03,8,0,8,0.75
2013-6-20,86.7,75.8,66.6,69.2,58.5,47.0,90,59,29,29.26,29.15,9,0,9,0.75
2013-6-21,85.6,76.5,66.2,63.9,56.0,49.6,82,52,30,29.32,29.21,8,0,9,0.00
2013-6-22,86.4,77.2,67.6,66.0,56.7,48.0,85,53,29,29.29,29.15,8,0,8,0.00
2013-6-23,87.3,77.0,66.2,64.7,56.3,49.0,81,52,29,29.26,29.15,8,0,8,0.00
2013-6-24,87.4,78.3,69.8,67.6,60.8,50.8,84,59,29,29.26,29.18,9,0,9,0.00
2013-6-25,87.8,80.2,73.6,70.5,62.4,54.0,89,58,32,29.21,29.09,8,0,8,0.00
2013-6-26,89.2,81.8,73.9,68.4,60.5,52.7,81,52,30,29.12,28.97,8,1,9,0.00
2013-6-27,79.9,73.6,70.7,70.7,65.2,57.0,91,76,49,29.06,28.91,15,1,15,0.20
2013-6-28,84.9,81.1,76.1,64.7,59.9,56.6,67,49,39,28.85,28.79,6,0,6,0.20
2013-6-29,86.5,77.8,68.9,65.1,52.5,40.1,86,47,21,28.82,28.76,6,0,6,0.20
2013-6-30,82.6,73.5,63.3,59.3,52.5,46.2,81,50,30,28.91,28.79,6,0,6,0.20
2013-7-1,71.2,67.9,65.3,61.8,59.5,58.4,83,75,65,28.88,28.85,0,0,0,0.20
2013-7-3,83.8,76.7,69.3,66.5,59.2,50.1,84,58,33,29.21,29.12,6,0,6,0.20
2013-7-4,71.6,69.9,68.7,68.7,67.3,65.6,96,92,84,29.18,29.12,9,0,9,3.43
2013-7-5,76.1,72.2,69.4,71.4,68.5,64.9,96,89,69,29.21,29.12,11,1,11,0.24
2013-7-6,75.4,71.8,68.7,72.2,68.5,65.8,96,90,75,29.21,29.15,8,0,8,1.06
2013-7-7,86.7,77.3,70.3,70.8,63.6,53.0,96,67,33,29.23,29.15,6,0,6,0.00
2013-7-8,87.1,79.0,71.8,71.7,64.5,53.4,91,65,34,29.26,29.18,6,0,6,0.00
2013-7-9,90.3,81.0,72.3,72.9,64.3,51.9,93,61,28,29.26,29.12,8,0,8,0.00
2013-7-10,91.0,81.7,72.7,73.1,64.8,55.6,86,60,31,29.15,28.97,16,0,16,2.01
2013-7-11,87.1,79.3,72.0,73.6,66.8,56.3,90,68,37,29.06,29.00,14,0,14,0.16
2013-7-12,84.0,75.4,66.9,65.7,53.8,41.1,79,51,26,29.09,29.03,13,2,13,0.00
2013-7-13,84.0,73.3,61.7,67.6,55.0,47.9,85,56,30,29.15,29.06,9,0,9,0.04
2013-7-14,72.1,71.0,70.5,67.2,66.1,65.1,87,85,82,29.15,29.12,0,0,0,0.00
2013-7-17,92.1,84.3,71.6,74.2,62.4,52.8,90,53,27,29.38,29.26,6,0,9,0.00
2013-7-18,89.2,81.4,75.2,71.4,63.9,51.6,87,59,29,29.26,29.15,8,0,8,0.00
2013-7-19,89.4,81.1,72.7,69.7,61.4,51.4,86,56,29,29.21,29.06,9,0,9,0.00
2013-7-20,88.5,80.8,72.9,69.2,61.3,50.8,85,55,29,29.12,28.97,10,0,10,0.00
2013-7-21,90.1,77.4,72.5,70.2,65.8,53.6,86,70,31,29.09,29.03,13,0,13,0.39
2013-7-22,75.6,73.2,71.2,70.9,66.3,61.3,89,79,62,29.06,28.97,10,1,10,0.24
2013-7-23,84.4,77.4,71.4,71.7,62.6,50.9,92,64,34,29.03,28.91,9,0,9,0.00
2013-7-24,86.2,78.8,72.9,66.3,58.5,51.8,80,51,32,29.03,28.94,6,0,6,0.00
2013-7-25,83.7,75.0,66.6,58.8,51.9,41.7,72,47,24,29.15,29.03,9,1,9,0.00
2013-7-26,85.3,74.6,63.0,63.2,53.8,42.6,84,52,25,29.15,29.06,4,0,4,0.00
2013-7-27,83.7,75.9,70.5,65.2,58.3,48.5,81,57,30,29.09,28.97,5,0,5,0.00
2013-7-28,80.2,71.8,64.4,64.9,50.3,40.2,80,50,25,29.18,29.03,6,0,8,0.00
2013-7-29,78.8,69.5,61.0,59.5,51.3,38.5,84,57,25,29.26,29.18,7,0,7,0.00
2013-7-30,86.4,73.6,61.7,70.1,57.7,45.7,88,62,25,29.26,29.18,6,0,8,1.10
2013-7-31,82.6,74.0,69.8,74.8,68.7,61.6,92,84,50,29.23,29.03,6,0,6,0.08
2013-8-1,85.5,76.5,69.6,70.8,60.4,47.8,93,63,29,29.12,29.03,10,0,10,0.00
2013-8-2,84.9,74.8,64.4,66.5,56.2,44.9,86,58,26,29.15,29.09,5,0,6,0.00
2013-8-3,75.7,72.9,68.9,72.4,66.8,60.8,92,82,62,29.18,29.09,6,0,6,0.20
2013-8-4,85.1,76.8,70.0,73.3,60.8,47.7,97,63,30,29.18,29.12,11,1,11,0.00
2013-8-5,82.4,73.6,67.6,61.8,55.1,40.5,80,55,24,29.18,29.06,4,0,6,0.00
2013-8-6,80.6,75.6,71.2,73.2,68.7,60.6,94,80,65,29.09,29.03,9,0,9,0.35
2013-8-7,77.0,75.2,73.0,73.0,69.7,64.6,90,83,67,29.09,29.03,9,0,9,0.04
2013-8-12,78.1,76.2,74.1,73.0,71.3,66.7,91,85,74,29.12,29.03,4,0,4,0.04
2013-8-13,83.5,75.7,71.1,70.8,63.4,53.1,91,69,36,29.09,29.00,6,0,6,0.04
2013-8-14,79.5,71.8,64.4,62.5,47.3,37.9,74,44,24,29.15,29.06,11,2,11,0.00
2013-8-15,79.0,69.2,57.9,60.3,51.8,44.9,76,55,37,29.18,29.09,5,0,5,0.00
2013-8-16,76.6,71.2,67.1,60.8,55.6,48.7,76,60,39,29.18,29.12,7,0,7,0.00
2013-8-17,75.0,70.8,67.6,63.5,58.1,50.9,82,65,44,29.21,29.15,7,0,7,0.00
2013-8-18,76.5,71.4,66.7,65.3,60.3,51.2,82,69,46,29.23,29.18,5,0,5,0.04
2013-8-19,82.2,73.7,67.5,69.0,63.6,51.7,87,73,36,29.23,29.12,4,0,4,0.20
2013-8-20,86.5,77.4,70.9,70.3,61.9,50.4,91,64,30,29.23,29.15,8,0,8,0.00
2013-8-21,84.0,77.1,71.6,73.1,66.0,56.8,92,71,41,29.26,29.18,5,1,5,0.12
2013-8-22,87.8,78.0,70.0,69.0,61.9,52.0,86,61,31,29.26,29.12,5,0,5,0.00
2013-8-23,87.1,82.4,74.7,70.3,55.9,49.3,79,42,28,29.18,29.09,6,0,6,0.00
2013-8-24,88.7,78.4,70.0,67.9,59.2,49.1,85,56,27,29.29,29.18,8,0,8,0.00
2013-8-25,86.0,77.2,69.1,66.3,54.7,45.1,79,49,25,29.41,29.29,9,0,9,0.00
2013-8-26,84.9,74.6,66.2,60.7,52.6,41.2,78,51,23,29.38,29.23,6,0,6,0.00
2013-8-27,86.4,75.4,64.6,63.9,54.6,42.6,82,54,24,29.26,29.15,3,0,3,0.00
2013-8-28,89.1,78.2,67.8,67.0,56.8,43.8,86,54,21,29.18,29.09,5,0,5,0.00
2013-8-29,91.2,80.5,69.6,66.6,57.8,46.2,81,51,22,29.15,29.06,7,0,7,0.00
2013-8-30,91.2,81.9,73.4,70.5,61.0,51.2,81,54,27,29.09,29.00,6,0,6,0.00
2013-8-31,90.9,78.0,73.2,71.3,66.5,47.8,89,71,24,29.06,28.94,13,0,13,0.67
2013-9-1,81.5,76.1,73.4,69.8,60.7,49.0,86,62,33,29.06,28.94,8,0,8,0.00
2013-9-2,83.7,78.5,73.6,69.1,60.7,53.7,86,56,38,29.03,28.94,10,0,10,0.00
2013-9-3,87.1,77.3,69.1,68.9,54.0,38.5,87,52,19,29.12,29.00,9,0,9,0.00
2013-9-4,83.7,73.1,62.8,60.3,49.6,38.1,79,49,21,29.23,29.12,8,0,8,0.00
2013-9-5,84.2,71.9,59.9,60.4,49.1,37.2,81,50,20,29.26,29.21,8,0,8,0.00
2013-9-6,86.9,73.4,60.6,61.6,50.0,34.9,82,50,16,29.26,29.15,6,0,6,0.00
2013-9-7,87.6,73.1,62.4,63.9,54.8,41.5,82,58,21,29.21,29.09,5,0,5,0.00
2013-9-8,89.1,77.2,66.4,67.9,55.6,42.2,87,54,20,29.12,29.03,7,0,7,0.00
2013-9-9,89.2,77.9,70.3,66.9,58.5,43.8,85,56,22,29.18,29.09,8,0,8,0.00
2013-9-10,91.2,76.9,72.0,66.6,61.2,46.5,80,61,22,29.26,29.18,4,0,4,0.00
2013-9-11,89.6,79.2,70.7,67.8,57.2,42.1,83,53,20,29.29,29.18,7,0,7,0.00
2013-9-12,89.1,77.3,71.6,69.2,61.3,45.9,85,62,23,29.18,29.03,5,0,5,0.16
2013-9-13,81.3,76.6,72.5,69.1,45.3,32.0,87,41,20,29.09,29.03,12,4,12,0.00
2013-9-16,84.7,77.9,66.7,61.1,41.2,36.0,81,29,18,29.26,29.18,8,1,8,0.00
2013-9-17,84.2,73.3,63.9,59.1,51.1,43.2,77,49,25,29.26,29.18,6,0,6,0.00
2013-9-18,81.7,75.2,69.6,60.2,51.4,45.0,71,45,32,29.26,29.18,10,1,10,0.00
2013-9-19,85.5,75.6,67.3,58.4,52.1,43.8,72,47,24,29.23,29.12,8,1,8,0.00
2013-9-20,87.3,76.3,67.1,66.3,52.1,42.9,82,47,23,29.12,28.91,11,1,11,0.12
2013-9-21,73.4,68.7,61.9,68.2,52.7,35.3,88,61,26,28.97,28.85,10,1,10,1.46
2013-9-22,61.9,60.8,59.4,45.0,44.6,44.1,58,55,53,28.94,28.94,0,0,0,0.00
2013-9-23,78.6,71.5,57.9,55.5,45.1,37.5,81,43,24,29.09,29.03,4,0,8,0.00
2013-9-24,77.5,69.4,60.8,61.5,53.4,45.1,81,60,32,29.09,28.94,8,0,8,0.00
2013-9-25,76.1,70.1,64.2,64.4,59.3,51.3,85,70,44,28.97,28.91,8,0,8,0.08
2013-9-26,79.7,70.5,63.1,64.5,53.8,40.2,90,61,25,29.12,28.97,9,1,9,0.00
2013-9-27,80.8,68.7,57.2,58.8,47.8,35.6,81,53,21,29.21,29.09,5,0,5,0.00
2013-9-28,63.5,60.9,59.4,55.1,53.3,51.8,82,76,70,29.26,29.18,0,0,0,0.00
2013-9-29,75.4,69.0,64.2,59.3,49.9,39.9,83,55,28,29.18,29.09,11,1,11,0.04
2013-9-30,73.6,67.1,61.5,58.9,50.3,41.3,84,58,32,29.15,29.06,10,1,10,0.00
2013-10-1,80.6,70.3,60.3,60.4,53.1,44.9,83,58,30,29.21,29.12,9,0,9,0.00
2013-10-2,67.8,66.8,65.5,62.0,60.6,58.5,85,81,74,29.21,29.18,4,0,4,0.00
2013-10-6,60.8,58.5,57.0,53.0,49.4,44.6,82,72,58,29.06,28.97,4,0,4,1.71
2013-10-7,67.6,59.5,50.0,52.0,39.0,28.4,84,51,24,29.18,29.03,11,1,11,0.00
2013-10-8,71.8,60.4,47.5,45.4,38.0,32.6,73,46,25,29.21,29.15,9,1,9,0.00
2013-10-9,60.3,58.0,56.7,49.7,47.0,43.6,74,67,56,29.21,29.18,0,0,0,0.00
2013-10-14,78.8,73.5,64.2,54.7,43.6,36.4,69,37,23,29.26,29.18,9,1,9,0.00
2013-10-15,73.8,68.5,62.4,58.6,47.3,41.2,83,49,32,29.21,29.09,8,1,8,0.00
2013-10-16,67.3,65.6,62.6,62.8,56.8,47.7,90,74,50,29.12,29.00,7,0,8,0.59
2013-10-17,63.1,59.9,53.8,59.4,52.1,42.4,90,76,49,29.09,29.00,5,0,5,0.04
2013-10-18,65.3,56.3,50.7,51.6,41.2,28.0,86,61,26,29.18,29.06,5,0,5,0.04
2013-10-19,63.3,53.9,44.1,46.9,40.1,29.4,80,61,37,29.15,29.00,6,0,6,0.04
2013-10-20,63.1,48.8,37.0,40.4,29.0,18.5,84,52,18,29.21,29.12,4,0,4,0.04
2013-10-21,69.1,54.4,39.2,41.4,32.7,27.8,80,49,22,29.18,29.06,6,0,6,0.04
2013-10-22,61.3,55.4,49.3,47.3,42.1,35.2,79,62,38,29.15,28.97,6,0,6,0.04
2013-10-23,54.0,48.9,40.3,40.0,27.4,19.8,67,45,27,29.21,28.97,8,1,8,0.04
2013-10-24,57.7,49.3,41.9,34.0,28.6,24.0,67,46,30,29.35,29.21,9,0,9,0.04
2013-10-28,60.1,58.6,56.8,50.0,49.7,49.0,76,72,67,29.32,29.32,0,0,0,0.00
2013-10-29,72.7,62.8,52.7,55.8,47.2,39.7,87,61,31,29.38,29.26,0,0,0,0.00
2013-10-30,76.1,67.8,60.4,53.2,43.7,33.4,76,45,22,29.32,29.15,0,0,0,0.00
2013-10-31,69.6,67.1,63.7,63.5,49.9,37.8,87,56,34,29.15,28.76,0,0,0,0.39
2013-11-1,69.1,63.7,54.7,54.9,37.9,24.9,75,43,20,28.91,28.79,0,0,0,0.04
2013-11-4,65.3,61.3,53.2,27.4,24.8,22.3,36,25,20,29.44,29.35,0,0,0,0.00
2013-11-5,67.1,57.9,51.4,32.4,25.5,20.2,48,29,23,29.47,29.32,0,0,0,0.00
2013-11-6,72.9,63.7,52.9,59.8,43.5,24.9,86,51,29,29.32,29.12,0,0,0,0.39
2013-11-7,62.8,49.3,36.3,58.9,25.8,14.8,87,43,23,29.41,29.15,0,0,0,0.12
2013-11-8,57.0,43.6,31.6,27.6,20.6,13.9,70,43,20,29.47,29.32,0,0,0,0.08
2013-11-9,60.1,48.7,34.2,29.0,23.5,18.5,71,39,24,29.38,29.26,0,0,0,0.08
2013-11-10,65.7,55.0,44.1,34.7,29.5,22.5,66,41,20,29.41,29.32,0,0,0,0.00
2013-11-11,67.3,58.5,44.1,27.3,21.8,16.8,40,25,17,29.38,29.23,6,0,6,0.43
2013-11-12,54.5,42.6,32.5,34.1,16.0,3.0,69,35,23,29.65,29.23,8,2,8,0.00
2013-11-13,47.3,35.3,25.7,12.4,9.3,4.5,50,35,22,29.74,29.50,3,0,3,0.00
2013-11-14,57.4,42.1,25.0,16.4,12.9,8.6,52,33,19,29.50,29.26,0,0,0,0.00
2013-11-15,56.3,50.4,38.5,46.9,31.5,11.6,85,53,27,29.29,29.15,0,0,0,0.00
2013-11-16,63.7,58.3,51.3,53.7,50.5,46.9,90,76,58,29.21,29.09,0,0,7,0.00
2013-11-17,70.2,66.1,61.5,65.2,61.7,45.7,91,86,55,29.03,28.88,9,2,9,0.41
2013-11-18,62.8,56.8,45.3,45.9,23.6,16.6,54,28,21,29.29,29.03,0,0,0,0.00
2013-11-19,51.8,45.5,39.9,17.7,15.3,12.1,37,29,23,29.35,29.23,0,0,0,0.00
2013-11-20,71.1,47.2,32.5,46.2,25.1,16.4,61,44,21,29.32,29.23,3,0,3,0.00
2013-11-21,63.9,56.1,51.3,51.8,43.1,35.2,78,62,54,29.35,29.26,8,1,8,0.04
2013-11-22,61.2,57.0,49.6,58.3,52.9,45.5,91,86,79,29.41,29.26,8,1,8,0.08
2013-11-23,49.6,44.1,32.2,45.9,34.0,17.8,87,69,49,29.56,29.35,14,2,14,0.05
2013-11-24,72.8,31.4,25.5,17.8,14.5,12.2,59,49,41,29.65,29.44,15,3,15,0.05
2013-11-25,40.4,35.0,28.7,31.0,20.7,12.9,79,57,40,29.47,29.20,6,1,6,0.30
2013-11-26,40.2,37.9,35.5,36.6,33.4,27.7,89,84,73,29.23,28.91,8,1,8,1.15
2013-11-27,35.5,31.3,24.7,28.4,16.3,10.4,75,54,42,29.41,29.03,18,3,18,0.00
2013-11-28,44.1,31.1,18.9,21.4,15.1,9.0,69,52,38,29.53,29.26,13,2,13,0.00
2013-11-29,50.4,36.0,25.1,29.0,21.2,15.7,68,56,41,29.59,29.35,13,3,13,0.00
2013-11-30,56.9,43.7,28.7,31.6,26.0,18.7,67,51,36,29.50,29.09,22,4,22,0.00
2013-12-1,53.3,48.1,39.8,35.6,31.6,24.5,58,53,49,29.29,28.91,13,4,13,0.00
2013-12-2,54.6,51.9,48.3,49.8,45.4,35.6,86,79,54,29.03,28.73,12,2,12,0.00
2013-12-3,58.0,56.2,53.7,55.8,53.1,49.6,93,89,86,28.88,28.58,14,2,14,0.00
2013-12-4,72.8,65.8,58.2,62.5,60.0,56.0,94,82,65,28.97,28.44,31,8,31,0.00
2013-12-5,76.9,59.5,41.2,67.2,54.9,36.7,89,85,69,29.17,28.88,17,7,17,0.36
2013-12-6,41.4,36.7,32.2,36.9,33.3,28.7,89,87,83,29.41,29.03,18,6,18,1.87
2013-12-7,33.1,31.6,30.0,29.2,27.2,25.8,87,83,80,29.53,29.38,27,10,27,0.00
2013-12-8,45.7,38.0,33.1,44.9,36.0,29.1,97,92,85,29.38,29.12,11,2,18,0.79
2013-12-9,45.7,37.0,31.7,44.7,33.7,28.0,97,88,81,29.29,29.14,14,3,24,0.41
2013-12-10,37.4,31.4,26.5,30.2,25.8,21.2,87,80,71,29.44,29.17,12,1,20,0.18
2013-12-11,46.0,33.3,23.4,30.0,22.1,17.8,89,65,39,29.56,29.41,9,1,15,0.00
2013-12-12,37.8,28.9,21.9,18.8,14.7,10.6,68,56,40,29.62,29.47,12,3,20,0.00
2013-12-13,43.2,33.9,19.6,25.1,19.0,12.0,75,56,40,29.47,29.12,10,1,17,0.00
2013-12-14,48.6,43.2,35.4,46.9,39.0,24.6,94,85,49,29.12,28.88,16,4,27,0.54
2013-12-15,35.4,33.0,31.3,31.4,27.2,24.2,89,79,71,29.29,29.09,11,3,19,0.54
2013-12-16,52.2,46.2,36.5,33.2,30.0,25.5,77,53,46,29.23,29.12,18,6,30,0.00
2013-12-17,57.4,46.1,34.0,35.6,28.5,21.1,59,50,39,29.35,29.09,19,4,31,0.00
2013-12-18,50.0,38.8,24.6,24.6,20.8,16.8,74,50,32,29.41,29.26,10,2,17,0.00
2013-12-19,59.4,49.7,40.5,36.7,27.6,19.7,49,42,38,29.29,29.12,15,5,26,0.00
2013-12-20,61.7,56.2,52.0,54.4,43.9,27.2,83,65,37,29.14,29.06,13,4,22,0.00
2013-12-21,69.8,65.9,58.8,64.2,61.9,57.1,95,87,76,28.94,28.76,20,8,32,0.88
2013-12-22,60.3,56.9,-2.7,57.3,53.9,0.0,94,89,86,29.20,28.85,18,8,31,0.36
2013-12-23,46.0,37.0,29.7,43.0,29.8,20.9,90,75,61,29.53,29.20,15,4,25,0.37
2013-12-24,35.1,29.7,23.0,21.8,14.4,10.4,71,53,40,29.56,29.47,12,3,20,0.00
2013-12-25,44.1,27.1,19.2,24.1,15.3,11.1,71,61,40,29.50,29.32,14,2,20,0.04
2013-12-26,46.4,37.5,26.8,28.9,23.3,18.3,70,57,47,29.47,29.35,13,2,19,0.04
2013-12-27,50.2,34.4,22.6,29.2,21.3,15.3,77,60,41,29.53,29.38,9,1,13,0.00
2013-12-28,43.7,36.7,29.5,35.4,28.3,19.2,85,71,55,29.44,29.03,7,1,11,0.35
2013-12-29,50.7,41.2,39.0,41.0,37.0,35.1,91,85,66,29.09,29.00,10,2,14,0.26
2013-12-30,34.9,33.9,30.9,26.1,25.4,23.3,74,71,70,29.38,29.26,14,3,20,0.28
2013-12-31,42.6,31.3,24.3,28.7,21.9,17.2,77,68,55,29.50,29.35,10,2,14,0.00
2014-1-1,49.5,36.1,21.7,33.9,24.8,14.4,78,64,49,29.41,29.06,7,3,10,0.00
2014-1-2,44.8,34.0,21.2,41.7,26.3,7.6,90,73,54,29.41,28.91,25,6,36,0.18